Terminal Aerodrome Forecast
Issued by NWS Grand Forks, ND

Home | Current Version | Previous Version | Graphics & Text | Print | Product List | Glossary On
Versions: 1 2 3 4 5 6 7 8 9 10 11 12 13 14 15 16 17 18 19 20 21
000
FTUS43 KFGF 301200 AAA
TAFFAR
TAF AMD
KFAR 301247Z 3013/3112 34008KT 3SM BR BKN003
     FM301330 35008KT P6SM BKN025
     FM301700 35020G27KT P6SM BKN025
     FM302300 35010G15KT P6SM SCT035
     FM310200 35007KT P6SM SKC=

USA.gov is the U.S. government's official web portal to all federal, state and local government web resources and services.